sensor_id;sensor_type;location;lat;lon;timestamp;pressure;altitude;pressure_sealevel;temperature;humidity
25526;BME280;13424;48.424;11.258;2023-02-03T00:00:36;96657.28;;;6.63;81.23
25526;BME280;13424;48.424;11.258;2023-02-03T00:03:02;96644.47;;;6.66;81.28
25526;BME280;13424;48.424;11.258;2023-02-03T00:05:28;96657.34;;;6.69;80.92
25526;BME280;13424;48.424;11.258;2023-02-03T00:07:55;96657.28;;;6.63;81.21
25526;BME280;13424;48.424;11.258;2023-02-03T00:10:22;96651.94;;;6.56;80.87
25526;BME280;13424;48.424;11.258;2023-02-03T00:12:50;96647.94;;;6.46;81.46
25526;BME280;13424;48.424;11.258;2023-02-03T00:15:20;96644.78;;;6.57;81.03
25526;BME280;13424;48.424;11.258;2023-02-03T00:17:48;96642.16;;;6.57;81.34
25526;BME280;13424;48.424;11.258;2023-02-03T00:20:14;96643.38;;;6.39;81.36
25526;BME280;13424;48.424;11.258;2023-02-03T00:22:39;96643.56;;;6.38;81.53
25526;BME280;13424;48.424;11.258;2023-02-03T00:29:11;96647.63;;;6.55;81.33
25526;BME280;13424;48.424;11.258;2023-02-03T00:31:39;96631.16;;;6.60;80.90
25526;BME280;13424;48.424;11.258;2023-02-03T00:34:05;96650.22;;;6.49;80.74
25526;BME280;13424;48.424;11.258;2023-02-03T00:36:32;96650.34;;;6.62;80.62
25526;BME280;13424;48.424;11.258;2023-02-03T00:38:59;96648.69;;;6.61;80.51
25526;BME280;13424;48.424;11.258;2023-02-03T00:41:29;96648.06;;;6.59;80.92
25526;BME280;13424;48.424;11.258;2023-02-03T00:43:56;96652.84;;;6.70;80.40
25526;BME280;13424;48.424;11.258;2023-02-03T00:46:24;96639.25;;;6.73;79.77
25526;BME280;13424;48.424;11.258;2023-02-03T00:48:50;96639.50;;;6.57;80.24
25526;BME280;13424;48.424;11.258;2023-02-03T00:51:16;96650.28;;;6.77;79.45
25526;BME280;13424;48.424;11.258;2023-02-03T00:53:42;96656.41;;;6.77;79.87
25526;BME280;13424;48.424;11.258;2023-02-03T00:56:17;96651.47;;;6.74;79.66
25526;BME280;13424;48.424;11.258;2023-02-03T00:58:43;96650.22;;;6.70;79.58
25526;BME280;13424;48.424;11.258;2023-02-03T01:01:09;96655.78;;;6.96;78.98
25526;BME280;13424;48.424;11.258;2023-02-03T01:03:35;96658.56;;;6.88;79.55
25526;BME280;13424;48.424;11.258;2023-02-03T01:06:19;96657.81;;;6.73;79.79
25526;BME280;13424;48.424;11.258;2023-02-03T01:08:46;96661.75;;;6.62;79.47
25526;BME280;13424;48.424;11.258;2023-02-03T01:11:16;96661.31;;;6.59;79.34
25526;BME280;13424;48.424;11.258;2023-02-03T01:13:42;96656.91;;;6.66;79.64
25526;BME280;13424;48.424;11.258;2023-02-03T01:16:10;96646.41;;;6.79;79.25
25526;BME280;13424;48.424;11.258;2023-02-03T01:18:37;96651.78;;;6.86;78.81
25526;BME280;13424;48.424;11.258;2023-02-03T01:21:17;96648.84;;;6.74;79.98
25526;BME280;13424;48.424;11.258;2023-02-03T01:23:43;96649.44;;;6.55;79.57
25526;BME280;13424;48.424;11.258;2023-02-03T01:26:16;96645.81;;;6.56;79.93
25526;BME280;13424;48.424;11.258;2023-02-03T01:32:19;96632.03;;;6.67;78.79
25526;BME280;13424;48.424;11.258;2023-02-03T01:34:45;96647.75;;;6.90;78.97
25526;BME280;13424;48.424;11.258;2023-02-03T01:37:11;96641.25;;;6.71;79.63
25526;BME280;13424;48.424;11.258;2023-02-03T01:39:36;96651.59;;;6.66;79.03
25526;BME280;13424;48.424;11.258;2023-02-03T01:42:02;96647.28;;;6.86;78.85
25526;BME280;13424;48.424;11.258;2023-02-03T01:44:46;96630.19;;;6.67;79.30
25526;BME280;13424;48.424;11.258;2023-02-03T01:47:25;96625.84;;;6.81;78.81
25526;BME280;13424;48.424;11.258;2023-02-03T01:52:41;96623.06;;;6.68;78.84
25526;BME280;13424;48.424;11.258;2023-02-03T01:55:10;96617.34;;;6.64;79.29
25526;BME280;13424;48.424;11.258;2023-02-03T01:57:55;96612.09;;;6.50;79.20
25526;BME280;13424;48.424;11.258;2023-02-03T02:00:24;96626.88;;;6.80;78.94
25526;BME280;13424;48.424;11.258;2023-02-03T02:02:52;96628.44;;;6.75;78.99
25526;BME280;13424;48.424;11.258;2023-02-03T02:05:34;96629.00;;;6.70;78.49
25526;BME280;13424;48.424;11.258;2023-02-03T02:08:06;96625.72;;;6.89;78.39
25526;BME280;13424;48.424;11.258;2023-02-03T02:10:33;96624.69;;;6.90;78.45
25526;BME280;13424;48.424;11.258;2023-02-03T02:13:00;96608.31;;;6.59;79.38
25526;BME280;13424;48.424;11.258;2023-02-03T02:16:09;96609.19;;;6.66;79.13
25526;BME280;13424;48.424;11.258;2023-02-03T02:36:33;96612.72;;;6.52;79.42
25526;BME280;13424;48.424;11.258;2023-02-03T02:39:22;96606.47;;;6.59;79.28
25526;BME280;13424;48.424;11.258;2023-02-03T02:42:38;96591.94;;;6.55;78.82
25526;BME280;13424;48.424;11.258;2023-02-03T02:45:19;96598.78;;;6.43;79.29
25526;BME280;13424;48.424;11.258;2023-02-03T02:47:48;96599.97;;;6.62;79.15
25526;BME280;13424;48.424;11.258;2023-02-03T02:50:27;96611.03;;;6.93;78.49
25526;BME280;13424;48.424;11.258;2023-02-03T02:52:55;96598.03;;;6.49;79.35
25526;BME280;13424;48.424;11.258;2023-02-03T02:55:30;96602.34;;;6.78;78.42
25526;BME280;13424;48.424;11.258;2023-02-03T02:58:06;96591.38;;;6.38;79.47
25526;BME280;13424;48.424;11.258;2023-02-03T03:00:34;96601.25;;;6.66;78.51
25526;BME280;13424;48.424;11.258;2023-02-03T03:03:23;96602.00;;;6.60;78.69
25526;BME280;13424;48.424;11.258;2023-02-03T03:10:03;96601.84;;;6.68;79.28
25526;BME280;13424;48.424;11.258;2023-02-03T03:12:38;96606.88;;;6.56;77.90
25526;BME280;13424;48.424;11.258;2023-02-03T03:15:07;96597.75;;;6.65;78.38
25526;BME280;13424;48.424;11.258;2023-02-03T03:17:41;96581.34;;;6.55;78.56
25526;BME280;13424;48.424;11.258;2023-02-03T03:20:16;96596.56;;;6.68;78.84
25526;BME280;13424;48.424;11.258;2023-02-03T03:22:52;96588.34;;;6.63;78.10
25526;BME280;13424;48.424;11.258;2023-02-03T03:25:23;96587.69;;;6.33;78.79
25526;BME280;13424;48.424;11.258;2023-02-03T03:27:58;96579.41;;;6.42;78.98
25526;BME280;13424;48.424;11.258;2023-02-03T03:30:29;96571.63;;;6.62;78.25
25526;BME280;13424;48.424;11.258;2023-02-03T03:32:57;96565.28;;;6.85;77.24
25526;BME280;13424;48.424;11.258;2023-02-03T03:35:24;96580.25;;;6.71;78.21
25526;BME280;13424;48.424;11.258;2023-02-03T03:37:59;96590.75;;;6.58;78.25
25526;BME280;13424;48.424;11.258;2023-02-03T03:40:33;96583.91;;;6.70;78.02
25526;BME280;13424;48.424;11.258;2023-02-03T03:43:14;96587.25;;;6.79;76.95
25526;BME280;13424;48.424;11.258;2023-02-03T03:46:20;96572.69;;;6.68;77.88
25526;BME280;13424;48.424;11.258;2023-02-03T03:48:56;96588.13;;;6.58;78.08
25526;BME280;13424;48.424;11.258;2023-02-03T03:51:33;96587.38;;;6.70;77.89
25526;BME280;13424;48.424;11.258;2023-02-03T03:54:06;96598.81;;;6.71;77.84
25526;BME280;13424;48.424;11.258;2023-02-03T03:56:42;96600.22;;;6.88;77.23
25526;BME280;13424;48.424;11.258;2023-02-03T03:59:09;96601.97;;;6.81;77.40
25526;BME280;13424;48.424;11.258;2023-02-03T04:01:37;96618.91;;;6.59;77.58
25526;BME280;13424;48.424;11.258;2023-02-03T04:04:07;96623.31;;;6.73;77.32
25526;BME280;13424;48.424;11.258;2023-02-03T04:06:35;96610.16;;;6.86;76.92
25526;BME280;13424;48.424;11.258;2023-02-03T04:09:00;96624.97;;;6.74;77.78
25526;BME280;13424;48.424;11.258;2023-02-03T04:11:27;96637.84;;;6.77;77.34
25526;BME280;13424;48.424;11.258;2023-02-03T04:14:11;96636.56;;;6.94;77.04
25526;BME280;13424;48.424;11.258;2023-02-03T04:16:37;96628.38;;;6.68;77.76
25526;BME280;13424;48.424;11.258;2023-02-03T04:19:03;96636.59;;;6.73;77.73
25526;BME280;13424;48.424;11.258;2023-02-03T04:21:29;96628.19;;;6.69;77.30
25526;BME280;13424;48.424;11.258;2023-02-03T04:23:55;96615.91;;;6.90;77.10
25526;BME280;13424;48.424;11.258;2023-02-03T04:26:22;96619.41;;;6.90;77.23
25526;BME280;13424;48.424;11.258;2023-02-03T04:28:47;96617.38;;;6.92;77.06
25526;BME280;13424;48.424;11.258;2023-02-03T04:31:19;96630.75;;;6.84;77.42
25526;BME280;13424;48.424;11.258;2023-02-03T04:33:45;96637.81;;;6.98;76.87
25526;BME280;13424;48.424;11.258;2023-02-03T04:36:11;96639.47;;;6.78;76.81
25526;BME280;13424;48.424;11.258;2023-02-03T04:38:36;96646.19;;;7.02;77.32
25526;BME280;13424;48.424;11.258;2023-02-03T04:41:02;96637.75;;;7.13;76.25
25526;BME280;13424;48.424;11.258;2023-02-03T04:43:28;96623.75;;;6.98;76.73
25526;BME280;13424;48.424;11.258;2023-02-03T04:45:54;96636.66;;;6.80;76.44
25526;BME280;13424;48.424;11.258;2023-02-03T04:48:20;96629.81;;;6.92;76.76
25526;BME280;13424;48.424;11.258;2023-02-03T04:50:46;96626.19;;;6.71;77.00
25526;BME280;13424;48.424;11.258;2023-02-03T04:53:12;96612.84;;;6.65;76.88
25526;BME280;13424;48.424;11.258;2023-02-03T04:55:37;96623.69;;;6.91;77.18
25526;BME280;13424;48.424;11.258;2023-02-03T04:58:03;96621.78;;;6.85;76.68
25526;BME280;13424;48.424;11.258;2023-02-03T05:00:29;96638.38;;;6.94;76.49
25526;BME280;13424;48.424;11.258;2023-02-03T05:02:55;96618.84;;;6.74;76.79
25526;BME280;13424;48.424;11.258;2023-02-03T05:05:21;96633.28;;;6.92;75.97
25526;BME280;13424;48.424;11.258;2023-02-03T05:07:46;96629.25;;;6.75;77.28
25526;BME280;13424;48.424;11.258;2023-02-03T05:10:12;96622.94;;;6.55;76.87
25526;BME280;13424;48.424;11.258;2023-02-03T05:12:38;96617.59;;;6.48;77.20
25526;BME280;13424;48.424;11.258;2023-02-03T05:15:04;96613.28;;;6.68;77.18
25526;BME280;13424;48.424;11.258;2023-02-03T05:17:30;96608.56;;;6.42;77.00
25526;BME280;13424;48.424;11.258;2023-02-03T05:19:56;96596.31;;;6.41;77.12
25526;BME280;13424;48.424;11.258;2023-02-03T05:22:22;96595.25;;;6.57;77.45
25526;BME280;13424;48.424;11.258;2023-02-03T05:24:48;96593.53;;;6.50;77.50
25526;BME280;13424;48.424;11.258;2023-02-03T05:27:13;96593.78;;;6.76;76.12
25526;BME280;13424;48.424;11.258;2023-02-03T05:29:39;96582.34;;;6.54;76.91
25526;BME280;13424;48.424;11.258;2023-02-03T05:32:05;96584.13;;;6.68;76.58
25526;BME280;13424;48.424;11.258;2023-02-03T05:34:31;96566.31;;;6.62;76.71
25526;BME280;13424;48.424;11.258;2023-02-03T05:36:56;96565.22;;;6.78;76.34
25526;BME280;13424;48.424;11.258;2023-02-03T05:39:26;96566.97;;;6.43;77.72
25526;BME280;13424;48.424;11.258;2023-02-03T05:41:58;96574.84;;;6.58;77.54
25526;BME280;13424;48.424;11.258;2023-02-03T05:44:26;96584.44;;;6.59;76.72
25526;BME280;13424;48.424;11.258;2023-02-03T05:46:54;96584.31;;;6.67;76.89
25526;BME280;13424;48.424;11.258;2023-02-03T05:49:21;96579.78;;;6.61;76.63
25526;BME280;13424;48.424;11.258;2023-02-03T05:51:49;96572.28;;;6.71;76.90
25526;BME280;13424;48.424;11.258;2023-02-03T05:54:21;96590.16;;;6.84;76.28
25526;BME280;13424;48.424;11.258;2023-02-03T05:56:49;96592.78;;;6.56;76.59
25526;BME280;13424;48.424;11.258;2023-02-03T05:59:15;96597.19;;;6.70;76.73
25526;BME280;13424;48.424;11.258;2023-02-03T06:01:41;96583.97;;;6.49;77.59
25526;BME280;13424;48.424;11.258;2023-02-03T06:04:13;96576.00;;;6.49;77.69
25526;BME280;13424;48.424;11.258;2023-02-03T06:06:38;96578.53;;;6.57;77.19
25526;BME280;13424;48.424;11.258;2023-02-03T06:09:07;96574.03;;;6.57;77.54
25526;BME280;13424;48.424;11.258;2023-02-03T06:11:34;96588.59;;;6.47;77.26
25526;BME280;13424;48.424;11.258;2023-02-03T06:14:00;96596.75;;;6.45;77.28
25526;BME280;13424;48.424;11.258;2023-02-03T06:16:27;96607.53;;;6.43;77.36
25526;BME280;13424;48.424;11.258;2023-02-03T06:18:54;96604.00;;;6.36;77.97
25526;BME280;13424;48.424;11.258;2023-02-03T06:21:26;96579.28;;;6.51;77.36
25526;BME280;13424;48.424;11.258;2023-02-03T06:23:52;96554.91;;;6.19;77.67
25526;BME280;13424;48.424;11.258;2023-02-03T06:26:17;96555.50;;;6.36;76.83
25526;BME280;13424;48.424;11.258;2023-02-03T06:28:43;96564.19;;;6.51;76.22
25526;BME280;13424;48.424;11.258;2023-02-03T06:31:09;96564.00;;;6.31;76.67
25526;BME280;13424;48.424;11.258;2023-02-03T06:33:35;96584.84;;;6.56;76.94
25526;BME280;13424;48.424;11.258;2023-02-03T06:36:01;96602.75;;;6.75;76.18
25526;BME280;13424;48.424;11.258;2023-02-03T06:38:27;96596.03;;;6.79;76.46
25526;BME280;13424;48.424;11.258;2023-02-03T06:40:53;96611.31;;;6.77;75.72
25526;BME280;13424;48.424;11.258;2023-02-03T06:43:19;96616.88;;;6.61;76.16
25526;BME280;13424;48.424;11.258;2023-02-03T06:45:45;96629.50;;;6.59;77.05
25526;BME280;13424;48.424;11.258;2023-02-03T06:48:12;96622.91;;;6.48;76.13
25526;BME280;13424;48.424;11.258;2023-02-03T06:50:41;96610.81;;;6.67;76.27
25526;BME280;13424;48.424;11.258;2023-02-03T06:53:07;96611.09;;;6.51;77.51
25526;BME280;13424;48.424;11.258;2023-02-03T06:55:42;96610.94;;;6.37;76.74
25526;BME280;13424;48.424;11.258;2023-02-03T06:58:08;96600.09;;;6.54;76.54
25526;BME280;13424;48.424;11.258;2023-02-03T07:00:34;96598.94;;;6.20;77.79
25526;BME280;13424;48.424;11.258;2023-02-03T07:02:59;96597.34;;;6.40;77.92
25526;BME280;13424;48.424;11.258;2023-02-03T07:05:26;96591.59;;;6.58;76.81
25526;BME280;13424;48.424;11.258;2023-02-03T07:07:52;96571.44;;;6.21;77.68
25526;BME280;13424;48.424;11.258;2023-02-03T07:10:21;96562.94;;;6.26;78.23
25526;BME280;13424;48.424;11.258;2023-02-03T07:12:47;96567.91;;;6.35;77.21
25526;BME280;13424;48.424;11.258;2023-02-03T07:15:21;96554.53;;;6.22;77.54
25526;BME280;13424;48.424;11.258;2023-02-03T07:17:47;96558.06;;;6.51;77.13
25526;BME280;13424;48.424;11.258;2023-02-03T07:20:19;96570.69;;;6.49;76.88
25526;BME280;13424;48.424;11.258;2023-02-03T07:22:51;96561.22;;;6.61;76.26
25526;BME280;13424;48.424;11.258;2023-02-03T07:25:17;96576.34;;;6.67;76.13
25526;BME280;13424;48.424;11.258;2023-02-03T07:27:43;96574.09;;;6.64;75.78
25526;BME280;13424;48.424;11.258;2023-02-03T07:30:10;96567.91;;;6.57;76.51
25526;BME280;13424;48.424;11.258;2023-02-03T07:32:36;96578.19;;;6.45;76.88
25526;BME280;13424;48.424;11.258;2023-02-03T07:35:02;96576.00;;;6.49;76.25
25526;BME280;13424;48.424;11.258;2023-02-03T07:37:28;96569.91;;;6.55;76.21
25526;BME280;13424;48.424;11.258;2023-02-03T07:39:54;96552.28;;;6.90;76.03
25526;BME280;13424;48.424;11.258;2023-02-03T07:42:20;96559.72;;;6.52;76.98
25526;BME280;13424;48.424;11.258;2023-02-03T07:44:49;96568.06;;;6.77;76.20
25526;BME280;13424;48.424;11.258;2023-02-03T07:47:15;96575.88;;;6.85;75.79
25526;BME280;13424;48.424;11.258;2023-02-03T07:49:42;96572.66;;;6.89;75.08
25526;BME280;13424;48.424;11.258;2023-02-03T07:52:08;96580.50;;;6.76;76.05
25526;BME280;13424;48.424;11.258;2023-02-03T07:54:36;96579.78;;;6.61;75.83
25526;BME280;13424;48.424;11.258;2023-02-03T07:57:02;96566.38;;;6.69;76.59
25526;BME280;13424;48.424;11.258;2023-02-03T07:59:28;96570.38;;;6.58;76.14
25526;BME280;13424;48.424;11.258;2023-02-03T08:01:56;96582.50;;;6.95;75.49
25526;BME280;13424;48.424;11.258;2023-02-03T08:04:22;96567.28;;;7.11;74.94
25526;BME280;13424;48.424;11.258;2023-02-03T08:06:54;96582.50;;;6.95;75.64
25526;BME280;13424;48.424;11.258;2023-02-03T08:09:20;96575.75;;;6.93;74.91
25526;BME280;13424;48.424;11.258;2023-02-03T08:11:52;96574.59;;;6.74;75.86
25526;BME280;13424;48.424;11.258;2023-02-03T08:14:18;96574.09;;;6.64;75.94
25526;BME280;13424;48.424;11.258;2023-02-03T08:16:44;96590.09;;;6.77;74.74
25526;BME280;13424;48.424;11.258;2023-02-03T08:19:13;96597.56;;;6.88;74.34
25526;BME280;13424;48.424;11.258;2023-02-03T08:21:39;96611.38;;;6.84;75.05
25526;BME280;13424;48.424;11.258;2023-02-03T08:24:05;96597.84;;;7.00;74.85
25526;BME280;13424;48.424;11.258;2023-02-03T08:26:31;96589.16;;;7.13;73.88
25526;BME280;13424;48.424;11.258;2023-02-03T08:28:58;96595.91;;;6.87;74.61
25526;BME280;13424;48.424;11.258;2023-02-03T08:31:24;96576.91;;;6.84;74.23
25526;BME280;13424;48.424;11.258;2023-02-03T08:33:50;96577.56;;;6.92;74.37
25526;BME280;13424;48.424;11.258;2023-02-03T08:36:19;96572.31;;;6.99;74.30
25526;BME280;13424;48.424;11.258;2023-02-03T08:42:53;96566.53;;;7.17;73.88
25526;BME280;13424;48.424;11.258;2023-02-03T08:45:20;96576.81;;;7.33;73.24
25526;BME280;13424;48.424;11.258;2023-02-03T08:47:46;96567.69;;;7.42;72.88
25526;BME280;13424;48.424;11.258;2023-02-03T08:50:12;96550.34;;;7.05;73.29
25526;BME280;13424;48.424;11.258;2023-02-03T08:52:39;96556.16;;;7.22;73.00
25526;BME280;13424;48.424;11.258;2023-02-03T08:55:05;96557.00;;;7.29;73.04
25526;BME280;13424;48.424;11.258;2023-02-03T08:57:35;96549.53;;;7.05;73.29
25526;BME280;13424;48.424;11.258;2023-02-03T09:03:39;96570.47;;;7.27;72.68
25526;BME280;13424;48.424;11.258;2023-02-03T09:06:05;96568.09;;;7.39;72.66
25526;BME280;13424;48.424;11.258;2023-02-03T09:08:32;96571.84;;;7.51;72.37
25526;BME280;13424;48.424;11.258;2023-02-03T09:10:58;96556.19;;;7.28;72.65
25526;BME280;13424;48.424;11.258;2023-02-03T09:13:34;96569.41;;;7.56;72.04
25526;BME280;13424;48.424;11.258;2023-02-03T09:16:00;96562.63;;;7.47;72.83
25526;BME280;13424;48.424;11.258;2023-02-03T09:18:25;96542.88;;;7.63;71.64
25526;BME280;13424;48.424;11.258;2023-02-03T09:20:51;96553.28;;;7.65;71.75
25526;BME280;13424;48.424;11.258;2023-02-03T09:23:17;96565.84;;;7.84;71.84
25526;BME280;13424;48.424;11.258;2023-02-03T09:25:43;96553.56;;;7.76;71.06
25526;BME280;13424;48.424;11.258;2023-02-03T09:28:11;96549.44;;;7.74;71.36
25526;BME280;13424;48.424;11.258;2023-02-03T09:30:37;96561.75;;;7.88;71.58
25526;BME280;13424;48.424;11.258;2023-02-03T09:33:02;96562.59;;;7.89;71.38
25526;BME280;13424;48.424;11.258;2023-02-03T09:35:28;96553.19;;;7.86;71.45
25526;BME280;13424;48.424;11.258;2023-02-03T09:37:54;96566.28;;;7.94;70.82
25526;BME280;13424;48.424;11.258;2023-02-03T09:40:34;96551.28;;;7.67;70.90
25526;BME280;13424;48.424;11.258;2023-02-03T09:43:29;96558.19;;;7.61;71.02
25526;BME280;13424;48.424;11.258;2023-02-03T09:48:39;96529.03;;;7.68;71.37
25526;BME280;13424;48.424;11.258;2023-02-03T09:51:17;96523.81;;;7.46;71.69
25526;BME280;13424;48.424;11.258;2023-02-03T09:54:22;96535.34;;;7.67;71.75
25526;BME280;13424;48.424;11.258;2023-02-03T09:56:51;96542.34;;;7.40;71.00
25526;BME280;13424;48.424;11.258;2023-02-03T09:59:21;96539.34;;;7.49;71.41
25526;BME280;13424;48.424;11.258;2023-02-03T10:02:02;96546.41;;;7.77;70.83
25526;BME280;13424;48.424;11.258;2023-02-03T10:08:21;96548.84;;;7.72;71.52
25526;BME280;13424;48.424;11.258;2023-02-03T10:10:57;96536.41;;;7.79;70.68
25526;BME280;13424;48.424;11.258;2023-02-03T10:13:49;96549.91;;;7.84;70.89
25526;BME280;13424;48.424;11.258;2023-02-03T10:19:19;96526.22;;;7.89;70.56
25526;BME280;13424;48.424;11.258;2023-02-03T10:21:58;96544.59;;;7.84;70.64
25526;BME280;13424;48.424;11.258;2023-02-03T10:24:42;96533.50;;;7.74;70.99
25526;BME280;13424;48.424;11.258;2023-02-03T10:27:22;96551.03;;;8.29;71.16
25526;BME280;13424;48.424;11.258;2023-02-03T10:30:18;96543.44;;;8.13;70.04
25526;BME280;13424;48.424;11.258;2023-02-03T10:32:44;96556.13;;;8.11;70.94
25526;BME280;13424;48.424;11.258;2023-02-03T10:35:11;96558.06;;;7.76;71.30
25526;BME280;13424;48.424;11.258;2023-02-03T10:37:46;96564.69;;;8.00;70.80
25526;BME280;13424;48.424;11.258;2023-02-03T10:40:16;96558.50;;;7.86;70.75
25526;BME280;13424;48.424;11.258;2023-02-03T10:42:43;96555.34;;;8.24;71.03
25526;BME280;13424;48.424;11.258;2023-02-03T10:45:32;96560.06;;;7.74;71.22
25526;BME280;13424;48.424;11.258;2023-02-03T10:48:00;96563.44;;;7.96;71.24
25526;BME280;13424;48.424;11.258;2023-02-03T10:50:27;96575.75;;;8.17;70.96
25526;BME280;13424;48.424;11.258;2023-02-03T10:53:32;96584.16;;;8.27;70.89
25526;BME280;13424;48.424;11.258;2023-02-03T10:59:46;96563.03;;;8.05;71.72
25526;BME280;13424;48.424;11.258;2023-02-03T11:02:21;96568.75;;;8.02;71.54
25526;BME280;13424;48.424;11.258;2023-02-03T11:07:35;96568.59;;;8.10;72.18
25526;BME280;13424;48.424;11.258;2023-02-03T11:10:02;96562.75;;;7.80;73.11
25526;BME280;13424;48.424;11.258;2023-02-03T11:12:27;96541.78;;;8.05;72.72
25526;BME280;13424;48.424;11.258;2023-02-03T11:14:53;96536.38;;;8.40;72.39
25526;BME280;13424;48.424;11.258;2023-02-03T11:17:24;96521.47;;;8.39;71.26
25526;BME280;13424;48.424;11.258;2023-02-03T11:20:13;96521.84;;;8.43;70.97
25526;BME280;13424;48.424;11.258;2023-02-03T11:22:42;96514.50;;;8.58;70.34
25526;BME280;13424;48.424;11.258;2023-02-03T11:25:27;96500.91;;;8.13;71.78
25526;BME280;13424;48.424;11.258;2023-02-03T11:28:03;96511.94;;;8.03;71.98
25526;BME280;13424;48.424;11.258;2023-02-03T11:30:31;96484.38;;;8.11;72.20
25526;BME280;13424;48.424;11.258;2023-02-03T11:33:00;96494.00;;;8.25;71.73
25526;BME280;13424;48.424;11.258;2023-02-03T11:35:28;96480.50;;;8.20;72.87
25526;BME280;13424;48.424;11.258;2023-02-03T11:38:00;96475.38;;;7.99;72.95
25526;BME280;13424;48.424;11.258;2023-02-03T11:40:32;96496.91;;;8.63;72.39
25526;BME280;13424;48.424;11.258;2023-02-03T11:43:04;96466.38;;;8.20;71.63
25526;BME280;13424;48.424;11.258;2023-02-03T11:45:44;96483.41;;;8.45;71.47
25526;BME280;13424;48.424;11.258;2023-02-03T11:48:34;96475.81;;;8.68;71.34
25526;BME280;13424;48.424;11.258;2023-02-03T11:51:25;96469.28;;;8.64;71.08
25526;BME280;13424;48.424;11.258;2023-02-03T11:54:47;96476.66;;;8.36;71.86
25526;BME280;13424;48.424;11.258;2023-02-03T12:04:14;96448.22;;;8.30;70.67
25526;BME280;13424;48.424;11.258;2023-02-03T12:10:29;96418.38;;;8.15;71.99
25526;BME280;13424;48.424;11.258;2023-02-03T12:13:47;96418.38;;;8.41;71.40
25526;BME280;13424;48.424;11.258;2023-02-03T12:16:54;96412.41;;;8.19;71.20
25526;BME280;13424;48.424;11.258;2023-02-03T12:26:24;96399.34;;;8.44;69.75
25526;BME280;13424;48.424;11.258;2023-02-03T12:29:24;96402.19;;;7.96;71.08
25526;BME280;13424;48.424;11.258;2023-02-03T12:32:23;96403.63;;;8.45;70.92
25526;BME280;13424;48.424;11.258;2023-02-03T12:35:16;96387.09;;;8.36;69.17
25526;BME280;13424;48.424;11.258;2023-02-03T12:38:06;96363.53;;;8.60;70.35
25526;BME280;13424;48.424;11.258;2023-02-03T12:40:40;96377.41;;;8.68;69.34
25526;BME280;13424;48.424;11.258;2023-02-03T12:43:33;96354.56;;;8.54;69.22
25526;BME280;13424;48.424;11.258;2023-02-03T12:46:16;96358.78;;;8.68;70.04
25526;BME280;13424;48.424;11.258;2023-02-03T12:52:14;96348.84;;;8.44;70.23
25526;BME280;13424;48.424;11.258;2023-02-03T12:59:03;96319.78;;;8.49;69.46
25526;BME280;13424;48.424;11.258;2023-02-03T13:01:38;96327.53;;;8.64;69.98
25526;BME280;13424;48.424;11.258;2023-02-03T13:04:30;96328.91;;;8.80;69.12
25526;BME280;13424;48.424;11.258;2023-02-03T13:07:15;96341.63;;;8.71;68.32
25526;BME280;13424;48.424;11.258;2023-02-03T13:09:59;96352.66;;;8.68;69.37
25526;BME280;13424;48.424;11.258;2023-02-03T13:12:46;96344.72;;;8.61;69.67
25526;BME280;13424;48.424;11.258;2023-02-03T13:15:36;96354.16;;;8.18;69.48
25526;BME280;13424;48.424;11.258;2023-02-03T13:18:33;96348.84;;;8.31;69.06
25526;BME280;13424;48.424;11.258;2023-02-03T13:21:00;96357.41;;;8.33;69.40
25526;BME280;13424;48.424;11.258;2023-02-03T13:27:25;96349.03;;;8.29;69.58
25526;BME280;13424;48.424;11.258;2023-02-03T13:33:29;96333.09;;;8.36;69.46
25526;BME280;13424;48.424;11.258;2023-02-03T13:36:37;96307.16;;;8.38;69.26
25526;BME280;13424;48.424;11.258;2023-02-03T13:42:29;96322.69;;;8.08;69.49
25526;BME280;13424;48.424;11.258;2023-02-03T13:45:44;96303.50;;;8.06;69.45
25526;BME280;13424;48.424;11.258;2023-02-03T13:48:31;96326.78;;;7.97;69.62
25526;BME280;13424;48.424;11.258;2023-02-03T13:51:19;96308.59;;;8.07;69.26
25526;BME280;13424;48.424;11.258;2023-02-03T13:53:47;96303.88;;;8.23;69.60
25526;BME280;13424;48.424;11.258;2023-02-03T13:56:22;96290.81;;;8.15;69.04
25526;BME280;13424;48.424;11.258;2023-02-03T14:01:41;96286.09;;;8.17;69.65
25526;BME280;13424;48.424;11.258;2023-02-03T14:06:57;96285.72;;;8.00;69.65
25526;BME280;13424;48.424;11.258;2023-02-03T14:25:24;96320.03;;;7.95;69.84
25526;BME280;13424;48.424;11.258;2023-02-03T14:28:08;96311.25;;;8.01;70.03
25526;BME280;13424;48.424;11.258;2023-02-03T14:31:15;96304.53;;;7.85;70.95
25526;BME280;13424;48.424;11.258;2023-02-03T14:36:45;96303.06;;;8.02;70.30
25526;BME280;13424;48.424;11.258;2023-02-03T14:42:19;96273.63;;;8.10;70.49
25526;BME280;13424;48.424;11.258;2023-02-03T14:51:09;96260.56;;;7.89;70.91
25526;BME280;13424;48.424;11.258;2023-02-03T14:54:08;96267.72;;;8.02;70.48
25526;BME280;13424;48.424;11.258;2023-02-03T14:56:46;96260.19;;;7.86;71.20
25526;BME280;13424;48.424;11.258;2023-02-03T15:02:24;96264.84;;;8.03;70.55
25526;BME280;13424;48.424;11.258;2023-02-03T15:07:46;96253.47;;;7.76;71.48
25526;BME280;13424;48.424;11.258;2023-02-03T15:10:22;96273.25;;;7.74;71.40
25526;BME280;13424;48.424;11.258;2023-02-03T15:12:57;96258.34;;;7.93;71.18
25526;BME280;13424;48.424;11.258;2023-02-03T15:15:39;96268.97;;;7.79;71.49
25526;BME280;13424;48.424;11.258;2023-02-03T15:18:43;96271.25;;;7.82;71.79
25526;BME280;13424;48.424;11.258;2023-02-03T15:21:18;96289.81;;;7.76;71.81
25526;BME280;13424;48.424;11.258;2023-02-03T15:23:46;96301.06;;;7.91;71.83
25526;BME280;13424;48.424;11.258;2023-02-03T15:26:16;96306.97;;;7.73;72.61
25526;BME280;13424;48.424;11.258;2023-02-03T15:29:02;96324.75;;;7.86;71.49
25526;BME280;13424;48.424;11.258;2023-02-03T15:31:41;96300.22;;;7.57;72.21
25526;BME280;13424;48.424;11.258;2023-02-03T15:36:49;96282.25;;;7.73;71.92
25526;BME280;13424;48.424;11.258;2023-02-03T15:39:44;96298.59;;;7.63;72.06
25526;BME280;13424;48.424;11.258;2023-02-03T15:42:27;96292.06;;;7.86;71.62